createdAt,value
2019-05-15T00:08:09.155Z,17.90
2019-05-15T00:18:18.372Z,18.50
2019-05-15T00:28:24.312Z,17.87
2019-05-15T00:38:30.632Z,19.67
2019-05-15T00:48:39.488Z,18.97
2019-05-15T00:58:44.858Z,17.87
2019-05-15T01:08:50.742Z,19.43
2019-05-15T01:18:58.584Z,17.97
2019-05-15T01:29:04.812Z,19.27
2019-05-15T01:39:12.425Z,17.43
2019-05-15T01:49:19.031Z,17.57
2019-05-15T01:59:28.314Z,20.63
2019-05-15T02:09:33.739Z,20.07
2019-05-15T02:19:39.957Z,19.07
2019-05-15T02:29:46.329Z,20.50
2019-05-15T02:39:52.279Z,19.67
2019-05-15T02:49:59.312Z,22.67
2019-05-15T03:00:10.334Z,21.93
2019-05-15T03:10:19.788Z,19.33
2019-05-15T03:20:25.195Z,19.17
2019-05-15T03:30:35.132Z,21.30
2019-05-15T03:40:40.330Z,18.20
2019-05-15T03:50:48.890Z,20.13
2019-05-15T04:01:00.223Z,17.63
2019-05-15T04:11:09.129Z,17.33
2019-05-15T04:21:20.043Z,19.43
2019-05-15T04:31:25.761Z,17.77
2019-05-15T04:41:35.115Z,19.43
2019-05-15T04:51:42.451Z,19.87
2019-05-15T05:01:53.231Z,17.57
2019-05-15T05:11:58.265Z,17.10
2019-05-15T05:22:07.810Z,17.20
2019-05-15T05:32:31.297Z,16.37
2019-05-15T05:42:29.008Z,15.33
2019-05-15T05:52:35.459Z,12.27
2019-05-15T06:02:47.745Z,14.57
2019-05-15T06:12:50.540Z,14.43
2019-05-15T06:22:58.036Z,15.00
2019-05-15T06:33:13.243Z,15.13
2019-05-15T06:43:19.250Z,13.47
2019-05-15T06:53:28.871Z,14.03
2019-05-15T07:03:35.743Z,14.67
2019-05-15T07:13:42.985Z,12.13
2019-05-15T07:23:49.950Z,11.90
2019-05-15T07:33:56.250Z,12.60
2019-05-15T07:44:03.701Z,10.73
2019-05-15T07:54:12.345Z,11.57
2019-05-15T08:04:28.704Z,11.47
2019-05-15T08:14:28.900Z,11.47
2019-05-15T08:24:35.112Z,10.97
2019-05-15T08:34:43.408Z,10.97
2019-05-15T08:44:51.591Z,12.13
2019-05-15T08:54:59.283Z,12.70
2019-05-15T09:05:08.588Z,12.73
2019-05-15T09:15:18.477Z,12.70
2019-05-15T09:25:28.792Z,11.47
2019-05-15T09:35:36.791Z,11.80
2019-05-15T09:45:44.488Z,15.67
2019-05-15T09:55:53.072Z,11.20
2019-05-15T10:06:03.630Z,11.47
2019-05-15T10:16:11.265Z,12.13
2019-05-15T10:26:19.061Z,12.27
2019-05-15T10:36:24.197Z,10.07
2019-05-15T10:46:30.509Z,7.53
2019-05-15T10:56:41.161Z,6.50
2019-05-15T11:06:52.227Z,7.57
2019-05-15T11:16:59.482Z,7.97
2019-05-15T11:27:10.072Z,8.97
2019-05-15T11:37:18.957Z,10.77
2019-05-15T11:47:42.259Z,10.87
2019-05-15T11:57:55.632Z,11.87
2019-05-15T12:08:02.244Z,9.80
2019-05-15T12:18:09.042Z,10.07
2019-05-15T12:28:17.859Z,8.83
2019-05-15T12:38:39.731Z,9.57
2019-05-15T13:09:04.811Z,8.30
2019-05-15T13:19:11.636Z,7.60
2019-05-15T13:29:18.192Z,10.90
2019-05-15T13:39:24.923Z,7.77
2019-05-15T13:49:33.484Z,8.00
2019-05-15T13:59:40.629Z,6.07
2019-05-15T14:09:48.295Z,8.37
2019-05-15T14:19:57.934Z,7.77
2019-05-15T14:30:08.903Z,8.37
2019-05-15T14:40:20.086Z,9.50
2019-05-15T14:50:29.418Z,9.57
2019-05-15T15:00:41.282Z,9.50
2019-05-15T15:10:50.555Z,10.57
2019-05-15T15:20:58.051Z,12.30
2019-05-15T15:31:14.408Z,11.53
2019-05-15T15:41:20.201Z,12.97
2019-05-15T15:51:28.432Z,15.33
2019-05-15T16:01:38.928Z,17.90
2019-05-15T16:11:45.284Z,18.70
2019-05-15T16:21:53.202Z,19.67
2019-05-15T16:32:02.254Z,21.30
2019-05-15T16:42:08.279Z,23.30
2019-05-15T16:52:14.561Z,29.63
2019-05-15T17:02:21.101Z,32.97
2019-05-15T17:12:28.387Z,34.23
2019-05-15T17:22:37.932Z,39.63
2019-05-15T17:32:49.062Z,38.80
2019-05-15T17:42:54.034Z,39.60
2019-05-15T17:53:01.296Z,38.83
2019-05-15T18:03:08.704Z,39.43
2019-05-15T18:13:14.923Z,38.63
2019-05-15T18:23:23.517Z,39.97
2019-05-15T18:33:28.906Z,42.90
2019-05-15T18:43:37.756Z,44.23
2019-05-15T18:53:48.143Z,43.37
2019-05-15T19:03:54.534Z,44.13
2019-05-15T19:14:10.453Z,41.83
2019-05-15T19:24:18.489Z,44.73
2019-05-15T19:34:28.169Z,39.07
2019-05-15T19:44:38.001Z,40.83
2019-05-15T19:54:48.127Z,41.07
2019-05-15T20:04:55.699Z,44.30
2019-05-15T20:15:01.804Z,40.57
2019-05-15T20:25:09.111Z,41.13
2019-05-15T20:35:15.994Z,39.73
2019-05-15T20:45:23.424Z,40.00
2019-05-15T20:55:29.003Z,40.20
2019-05-15T21:05:34.803Z,42.10
2019-05-15T21:15:41.140Z,38.60
2019-05-15T21:25:52.059Z,38.03
2019-05-15T21:35:58.365Z,37.47
2019-05-15T21:46:04.634Z,37.57
2019-05-15T21:56:10.720Z,35.90
2019-05-15T22:06:18.544Z,37.57
2019-05-15T22:16:25.740Z,35.27
2019-05-15T22:26:32.703Z,34.57
2019-05-15T22:36:38.970Z,34.07
2019-05-15T22:46:45.698Z,32.63
2019-05-15T22:56:51.479Z,32.53
2019-05-15T23:06:57.681Z,32.57
2019-05-15T23:17:03.986Z,32.40
2019-05-15T23:27:10.308Z,31.10
2019-05-15T23:37:22.989Z,30.73
2019-05-15T23:47:29.495Z,28.40
2019-05-15T23:57:35.879Z,26.93
